Spirit Of Oceanus — C6PJ8 — position and weather

sailwx.info

Track history (hours):
 
Tides and Currents Weather Stations Pressure Air Temp Water Temp Dewpoint Dewpoint Depression Visibility Wind Speed Wind Dir Waves Ship Positions

Spirit Of Oceanus

Last reported at 2016-Jun-10 23:04 UTC. Time now 2016-Jul-01 10:03 UTC.
Position N 63°34' W 051°54'.
Warning: this ship's position is 20 days out of date.

Type: Passenger vessel. MMSI: 309224000.

Date/timePositionNaut miles runAvg speedWind from/ knotsBaromVisibWave heightAir tempDewpointWater temp
2016-Jun-10 23:04N 63°34' W 051°54'612.5
2016-Jun-10 22:33N 63°40' W 051°60'1212.2
2016-Jun-10 21:33N 63°51' W 052°11'1211.6
2016-Jun-10 20:33N 64°03' W 052°14'1313.3
2016-Jun-10 19:33N 64°09' W 051°47'2 2.2
2016-Jun-10 18:31N 64°10' W 051°43'0 0.0
2016-Jun-10 17:31N 64°10' W 051°43'0 0.0
2016-Jun-10 16:31N 64°10' W 051°43'0 0.0
2016-Jun-10 15:31N 64°10' W 051°43'0 0.0
2016-Jun-10 14:31N 64°10' W 051°43'0 0.0
2016-Jun-10 13:31N 64°10' W 051°43'0 0.0
2016-Jun-10 12:31N 64°10' W 051°43'1 1.1
2016-Jun-10 11:33N 64°09' W 051°45'9 9.1
2016-Jun-10 10:33N 64°05' W 052°03'8 8.1
2016-Jun-10 09:33N 64°08' W 052°20'1010.0
2016-Jun-10 08:33N 64°17' W 052°29'1212.0
2016-Jun-10 07:33N 64°29' W 052°39'1312.8
2016-Jun-10 06:33N 64°41' W 052°48'1312.8
2016-Jun-10 05:33N 64°53' W 052°58'1312.9
2016-Jun-10 04:33N 65°05' W 053°07'1312.7
2016-Jun-10 03:33N 65°17' W 053°17'  
Track history (hours):
 
Tides and Currents Weather Stations Pressure Air Temp Water Temp Dewpoint Dewpoint Depression Visibility Wind Speed Wind Dir Waves Ship Positions

Spirit Of Oceanus

Last reported at 2016-Jun-10 23:04 UTC. Time now 2016-Jul-01 10:03 UTC.
Position N 63°34' W 051°54'.
Warning: this ship's position is 20 days out of date.

Type: Passenger vessel. MMSI: 309224000.

Date/timePositionNaut miles runAvg speedWind from/ knotsBaromVisibWave heightAir tempDewpointWater temp
2016-Jun-10 23:04N 63°34' W 051°54'612.5
2016-Jun-10 22:33N 63°40' W 051°60'1212.2
2016-Jun-10 21:33N 63°51' W 052°11'1211.6
2016-Jun-10 20:33N 64°03' W 052°14'1313.3
2016-Jun-10 19:33N 64°09' W 051°47'2 2.2
2016-Jun-10 18:31N 64°10' W 051°43'0 0.0
2016-Jun-10 17:31N 64°10' W 051°43'0 0.0
2016-Jun-10 16:31N 64°10' W 051°43'0 0.0
2016-Jun-10 15:31N 64°10' W 051°43'0 0.0
2016-Jun-10 14:31N 64°10' W 051°43'0 0.0
2016-Jun-10 13:31N 64°10' W 051°43'0 0.0
2016-Jun-10 12:31N 64°10' W 051°43'1 1.1
2016-Jun-10 11:33N 64°09' W 051°45'9 9.1
2016-Jun-10 10:33N 64°05' W 052°03'8 8.1
2016-Jun-10 09:33N 64°08' W 052°20'1010.0
2016-Jun-10 08:33N 64°17' W 052°29'1212.0
2016-Jun-10 07:33N 64°29' W 052°39'1312.8
2016-Jun-10 06:33N 64°41' W 052°48'1312.8
2016-Jun-10 05:33N 64°53' W 052°58'1312.9
2016-Jun-10 04:33N 65°05' W 053°07'1312.7
2016-Jun-10 03:33N 65°17' W 053°17'  

Dump ship's entire track history